• Join FlightAware (Why Join?)
  • Login
  • US Flag 
07:50AM EDT


 

Airport Tracker/Info


-or-


 

Live Flight TrackerFlight Track Log ✈ RPA3228 ✈ 08-Nov-2013 ✈ KBNA - KDCA

Flight Track Log - Related Links

Times and Time Zones

All times are in EST time to prevent confusion due to time zone crossing. See the RPA3228 flight status page for this flight to view local times or setup timezone preferences in your user account.

Time Position Orientation Groundspeed Altitude Reporting Facility
EST Latitude Longitude Course Direction KTS MPH feet Rate Location/Type
07:14AM 36.1333 -86.6833 50° Northeast 146 168 1,300  Level Nashville TRACON
07:15AM 36.1500 -86.7167 302° West 160 184 2,500 2,160 Climbing Nashville TRACON
07:16AM 36.1667 -86.7667 292° West 213 245 4,600 2,160 Climbing Nashville TRACON
07:17AM 36.2387 -86.3351 80° East  Level Estimated
07:17AM 36.1833 -86.7000 73° East 279 321 6,900  Level Nashville TRACON
07:18AM 36.2766 -86.2205 64° Northeast  Level Estimated
07:18AM 36.1897 -86.5508 87° East 319 367 10,500  Level Memphis Center
07:19AM 36.3143 -86.1058 68° East  Level Estimated
07:19AM 36.1925 -86.4350 88° East 327 376 12,100  Level Memphis Center
07:20AM 36.3520 -85.9910 50° Northeast  Level Estimated
07:20AM 36.1947 -86.3089 89° East 356 410 14,900  Level Memphis Center
07:21AM 36.1969 -86.1906 89° East 367 422 17,000 1,860 Climbing Memphis Center
07:22AM 36.2092 -86.0561 84° East 388 447 18,700 1,800 Climbing Memphis Center
07:23AM 36.2611 -85.9350 62° Northeast 381 438 20,700 1,980 Climbing Memphis Center
07:24AM 36.3053 -85.8333 62° Northeast 411 473 22,400 1,860 Climbing Indianapolis Center
07:25AM 36.3672 -85.7022 60° Northeast 421 484 24,300 1,740 Climbing Indianapolis Center
07:26AM 36.4300 -85.5703 59° Northeast 436 502 26,000 1,260 Climbing Indianapolis Center
07:27AM 36.4931 -85.4361 60° Northeast 445 512 27,000 540 Climbing Indianapolis Center
07:28AM 36.5581 -85.2992 59° Northeast 455 524 27,100 660 Climbing Indianapolis Center
07:29AM 36.6197 -85.1553 62° Northeast 475 547 28,400 1,440 Climbing Indianapolis Center
07:30AM 36.6792 -84.9700 68° East 479 551 30,100 1,260 Climbing Indianapolis Center
07:31AM 36.7272 -84.8125 69° East 483 556 31,000 420 Climbing Indianapolis Center
07:32AM 36.7731 -84.6586 70° East 473 544 31,000  Level Indianapolis Center
07:33AM 36.8178 -84.5097 69° East 459 528 31,000  Level Indianapolis Center
07:34AM 36.8625 -84.3628 69° East 460 529 31,000  Level Indianapolis Center
07:35AM 36.9075 -84.2142 69° East 457 526 31,000  Level Indianapolis Center
07:36AM 36.9525 -84.0650 69° East 457 526 31,000  Level Indianapolis Center
07:37AM 36.9961 -83.9139 70° East 459 528 31,000  Level Indianapolis Center
07:38AM 37.0436 -83.7625 69° East 466 536 31,000  Level Indianapolis Center
07:39AM 37.0881 -83.6103 70° East 465 535 31,000  Level Indianapolis Center
07:40AM 37.1383 -83.4331 70° East 463 533 31,000  Level Indianapolis Center
07:42AM 37.1831 -83.2797 70° East 465 535 31,000  Level Indianapolis Center
07:43AM 37.2267 -83.1275 70° East 463 533 31,000  Level Indianapolis Center
07:44AM 37.2711 -82.9733 70° East 464 534 31,000  Level Indianapolis Center
07:45AM 37.3147 -82.8194 70° East 464 534 31,000  Level Indianapolis Center
07:46AM 37.3592 -82.6650 70° East 467 537 31,000  Level Indianapolis Center
07:47AM 37.4017 -82.5106 71° East 466 536 31,000  Level Indianapolis Center
07:48AM 37.4456 -82.3547 70° East 470 541 31,000  Level Indianapolis Center
07:49AM 37.4897 -82.1994 70° East 471 542 31,000  Level Indianapolis Center
07:50AM 37.5325 -82.0428 71° East 472 543 31,000  Level Indianapolis Center
07:51AM 37.5833 -81.8589 71° East 474 545 31,000  Level Indianapolis Center
07:52AM 37.6261 -81.7008 71° East 475 547 31,000  Level Indianapolis Center
07:53AM 37.6692 -81.5442 71° East 473 544 31,000  Level Indianapolis Center
07:54AM 37.7125 -81.3803 71° East 478 550 31,000  Level Indianapolis Center
07:55AM 37.7539 -81.2242 71° East 480 552 31,000  Level Indianapolis Center
07:56AM 37.7989 -81.0700 70° East 479 551 31,000  Level Indianapolis Center
07:57AM 37.8539 -80.9183 65° Northeast 477 549 31,000  Level Indianapolis Center
07:58AM 37.9175 -80.7344 66° East 478 550 31,000  Level Indianapolis Center
07:59AM 37.9725 -80.5803 66° East 480 552 31,000  Level Indianapolis Center
08:00AM 37.9997 -80.5039 66° East 474 545 31,000  Level Washington Center
08:01AM 38.0519 -80.3464 67° East 474 545 31,000  Level Washington Center
08:02AM 38.1039 -80.1939 67° East 469 540 31,000  Level Washington Center
08:03AM 38.1536 -80.0333 68° East 469 540 31,000  Level Washington Center
08:04AM 38.2053 -79.8753 67° East 474 545 31,000  Level Washington Center
08:05AM 38.2636 -79.6986 67° East 484 557 31,000  Level Washington Center
08:06AM 38.3150 -79.5347 68° East 489 563 31,000 -360 Level Washington Center
08:07AM 38.3683 -79.3656 68° East 496 571 30,300 -1,260 Descending Washington Center
08:08AM 38.4236 -79.1933 68° East 507 583 28,500 -1,680 Descending Washington Center
08:09AM 38.4725 -79.0208 70° East 512 589 27,000 -1,320 Descending Washington Center
08:10AM 38.5025 -78.8389 78° East 512 589 26,000 -1,860 Descending Washington Center
08:11AM 38.5303 -78.6625 79° East 512 589 23,300 -2,160 Descending Washington Center
08:12AM 38.5575 -78.4908 78° East 505 581 21,700 -1,620 Descending Washington Center
08:13AM 38.5842 -78.3219 79° East 493 567 20,200 -1,920 Descending Washington Center
08:14AM 38.6253 -78.1586 72° East 488 562 17,900 -2,100 Descending Washington Center
08:15AM 38.6700 -78.0219 67° East 447 514 16,000 -1,980 Descending Washington Center
08:16AM 38.7122 -77.8903 68° East 423 487 14,000 -1,920 Descending Washington Center
08:17AM 38.7664 -77.7750 59° Northeast 391 450 12,200 -1,680 Descending Washington Center
08:18AM 38.8286 -77.6808 50° Northeast 357 411 10,700 -1,380 Descending Washington Center
08:19AM 38.8614 -77.5883 66° East 322 371 9,500 -1,260 Descending Washington Center
08:20AM 38.9000 -77.4667 68° East 292 336 8,100 -1,380 Descending Potomac TRACON
08:21AM 38.8833 -77.3667 102° East 312 359 6,600 -1,260 Descending Potomac TRACON
08:21AM 38.8500 -77.3000 123° Southeast 310 357 6,000 -420 Descending Potomac TRACON
08:22AM 38.8000 -77.2000 123° Southeast 308 354 5,900 -840 Descending Potomac TRACON
08:23AM 38.7500 -77.1167 128° Southeast 290 334 4,400 -1,020 Descending Potomac TRACON
08:24AM 38.6833 -77.0833 159° South 243 280 3,900 -780 Descending Potomac TRACON
08:25AM 38.7000 -77.0333 67° East 180 207 2,900 -1,020 Descending Potomac TRACON
08:26AM 38.7500 -77.0333 360° North 158 182 2,000 -960 Descending Potomac TRACON
08:27AM 38.7833 -77.0333 360° North 155 178 1,100 -840 Descending Potomac TRACON
08:28AM 38.8167 -77.0333 360° North 129 148 400 -720 Descending Potomac TRACON